Uraga Maru — JD2163 — position and weather

sailwx.info

Track history (hours):
 
Tides and Currents Weather Stations Pressure Air Temp Water Temp Dewpoint Dewpoint Depression Visibility Wind Speed Wind Dir Waves Ship Positions

Uraga Maru

Last reported at 2015-Apr-21 11:33 UTC. Time now 2015-Apr-21 11:39 UTC.
Position N 35°12' E 139°46'.

Length 40 m; draft 2.8 m.

Type: Tug. MMSI: 431101119.

Date/timePositionNaut miles runAvg speedWind from/ knotsBaromVisibWave heightAir tempDewpointWater temp
2015-Apr-21 11:33N 35°12' E 139°46'1110.7
2015-Apr-21 10:33N 35°22' E 139°42'4 4.4
2015-Apr-21 09:33N 35°27' E 139°42'0 0.1
2015-Apr-21 08:33N 35°27' E 139°42'0 0.0
2015-Apr-21 07:33N 35°27' E 139°42'4 3.6
2015-Apr-21 06:33N 35°27' E 139°47'4 3.9
2015-Apr-21 05:33N 35°28' E 139°51'1110.7
2015-Apr-21 04:33N 35°19' E 139°44'1010.2
2015-Apr-21 03:33N 35°09' E 139°47'5 5.2
2015-Apr-21 02:33N 35°13' E 139°43'4 4.2
2015-Apr-21 01:33N 35°17' E 139°45'5 5.3
2015-Apr-21 00:33N 35°22' E 139°41'5 4.6
2015-Apr-20 23:32N 35°17' E 139°41'0 0.0
2015-Apr-20 21:30N 35°17' E 139°41'0 0.0
2015-Apr-20 20:28N 35°17' E 139°41'0 0.0
2015-Apr-20 16:29N 35°17' E 139°41'0 0.0
2015-Apr-20 06:30N 35°17' E 139°41'0 0.0
2015-Apr-20 05:33N 35°17' E 139°41'0 0.0
2015-Apr-20 04:30N 35°17' E 139°41'0 0.0
2015-Apr-20 03:33N 35°17' E 139°41'3 3.2
2015-Apr-20 02:33N 35°20' E 139°42'2 2.2
2015-Apr-20 01:34N 35°19' E 139°44'8 8.1
2015-Apr-20 00:31N 35°10' E 139°47'4 3.3
2015-Apr-19 23:15N 35°13' E 139°43'4 5.4
2015-Apr-19 22:32N 35°17' E 139°45'1010.4
2015-Apr-19 21:34N 35°27' E 139°47'1010.4
2015-Apr-19 20:34N 35°33' E 139°57'9 8.9
2015-Apr-19 19:33N 35°27' E 139°49'1211.9
2015-Apr-19 18:33N 35°17' E 139°41'0 0.3
2015-Apr-19 17:33N 35°17' E 139°41'0 0.0
2015-Apr-19 16:33N 35°17' E 139°41'0 0.0
2015-Apr-19 15:33N 35°17' E 139°41'0 0.0
2015-Apr-19 14:33N 35°17' E 139°41'0 0.0
2015-Apr-19 13:33N 35°17' E 139°41'0 0.0
2015-Apr-19 12:33N 35°17' E 139°41'0 0.0
2015-Apr-19 11:33N 35°17' E 139°41'0 0.0
2015-Apr-19 10:33N 35°17' E 139°41'0 0.0
2015-Apr-19 09:33N 35°17' E 139°41'0 0.0
2015-Apr-19 08:33N 35°17' E 139°41'0 0.0
2015-Apr-19 07:33N 35°17' E 139°41'0 0.0
2015-Apr-19 06:33N 35°17' E 139°41'10 9.9
2015-Apr-19 05:33N 35°26' E 139°46'1010.1
2015-Apr-19 04:33N 35°16' E 139°46'5 5.2
2015-Apr-19 03:34N 35°11' E 139°47'2 2.0
2015-Apr-19 02:34N 35°12' E 139°45'7 7.4
2015-Apr-19 01:34N 35°19' E 139°43'5 5.4
2015-Apr-19 00:33N 35°22' E 139°48'0 0.5
2015-Apr-18 23:33N 35°22' E 139°49'6 5.7
2015-Apr-18 22:33N 35°18' E 139°45'8 7.5
2015-Apr-18 21:33N 35°11' E 139°47'8 8.3
2015-Apr-18 20:33N 35°17' E 139°41'0 0.2
2015-Apr-18 19:33N 35°17' E 139°41'0 0.0
2015-Apr-18 18:33N 35°17' E 139°41'0 0.0
2015-Apr-18 17:33N 35°17' E 139°41'0 0.0
2015-Apr-18 16:34N 35°17' E 139°41'0 0.0
2015-Apr-18 15:33N 35°17' E 139°41'0 0.0
2015-Apr-18 14:34N 35°17' E 139°41'0 0.0
2015-Apr-18 13:33N 35°17' E 139°41'0 0.0
2015-Apr-18 12:33N 35°17' E 139°41'0 0.0
2015-Apr-18 11:33N 35°17' E 139°41'0 0.0
2015-Apr-18 10:32N 35°17' E 139°41'0 0.0
2015-Apr-18 09:33N 35°17' E 139°41'0 0.0
2015-Apr-18 08:33N 35°17' E 139°41'0 0.0
2015-Apr-18 07:33N 35°17' E 139°41'0 0.0
2015-Apr-18 06:33N 35°17' E 139°41'0 0.0
2015-Apr-18 05:33N 35°17' E 139°41'0 0.0
2015-Apr-18 04:33N 35°17' E 139°41'0 0.0
2015-Apr-18 03:33N 35°17' E 139°41'0 0.0
2015-Apr-18 02:33N 35°17' E 139°41'1 0.9
2015-Apr-18 01:33N 35°18' E 139°41'4 4.0
2015-Apr-18 00:34N 35°21' E 139°45'1110.8
2015-Apr-17 23:33N 35°10' E 139°47'9 8.6
2015-Apr-17 22:33N 35°18' E 139°42'1 1.2
2015-Apr-17 21:33N 35°17' E 139°41'0 0.0
2015-Apr-17 20:33N 35°17' E 139°41'0 0.0
2015-Apr-17 19:33N 35°17' E 139°41'0 0.0
2015-Apr-17 18:33N 35°17' E 139°41'0 0.0
2015-Apr-17 17:33N 35°17' E 139°41'0 0.0
2015-Apr-17 16:32N 35°17' E 139°41'0 0.0
2015-Apr-17 15:32N 35°17' E 139°41'0 0.0
2015-Apr-17 14:33N 35°17' E 139°41'0 0.0
2015-Apr-17 13:33N 35°17' E 139°41'0 0.0
2015-Apr-17 12:33N 35°17' E 139°41'0 0.0
2015-Apr-17 11:32N 35°17' E 139°41'0 0.0
2015-Apr-17 10:30N 35°17' E 139°41'0 0.0
2015-Apr-17 09:33N 35°17' E 139°41'0 0.0
2015-Apr-17 08:33N 35°17' E 139°41'0 0.0
2015-Apr-17 07:33N 35°17' E 139°41'2 2.3
2015-Apr-17 06:33N 35°19' E 139°39'2 2.4
2015-Apr-17 05:33N 35°17' E 139°41'0 0.2
2015-Apr-17 04:32N 35°17' E 139°41'0 0.0
2015-Apr-17 03:33N 35°17' E 139°41'7 6.4
2015-Apr-17 02:31N 35°12' E 139°46'1110.9
2015-Apr-17 01:33N 35°22' E 139°42'5 5.3
2015-Apr-17 00:33N 35°21' E 139°49'3 2.7
2015-Apr-16 23:33N 35°21' E 139°45'5 5.5
2015-Apr-16 22:33N 35°17' E 139°41'0 0.0
2015-Apr-16 21:33N 35°17' E 139°41'0 0.0
2015-Apr-16 20:32N 35°17' E 139°41'0 0.0
2015-Apr-16 19:31N 35°17' E 139°41'0 0.0
2015-Apr-16 18:29N 35°17' E 139°41'0 0.0
2015-Apr-16 17:30N 35°17' E 139°41'0 0.0
2015-Apr-16 16:22N 35°17' E 139°41'0 0.0
2015-Apr-16 15:22N 35°17' E 139°41'0 0.0
2015-Apr-16 13:28N 35°17' E 139°41'0 0.0
2015-Apr-16 12:30N 35°17' E 139°41'0 0.0
2015-Apr-16 11:33N 35°17' E 139°41'0 0.0
2015-Apr-16 10:29N 35°17' E 139°41'0 0.0
2015-Apr-16 09:33N 35°17' E 139°41'0 0.0
2015-Apr-16 08:33N 35°17' E 139°41'0 0.0
2015-Apr-16 07:15N 35°17' E 139°41'2 2.5
2015-Apr-16 06:31N 35°19' E 139°42'1212.0
2015-Apr-16 05:33N 35°28' E 139°50'4 4.1
2015-Apr-16 04:30N 35°25' E 139°47'1111.3
2015-Apr-16 03:33N 35°14' E 139°47'1 0.9
2015-Apr-16 02:33N 35°14' E 139°46'5 2.6
2015-Apr-16 00:33N 35°17' E 139°41'5 4.6
2015-Apr-15 23:29N 35°21' E 139°45'1011.0
2015-Apr-15 22:33N 35°11' E 139°47'4 4.1
2015-Apr-15 21:32N 35°15' E 139°46'5 1.5
2015-Apr-15 18:25N 35°17' E 139°41'0 0.0
2015-Apr-15 17:33N 35°17' E 139°41'0 0.0
2015-Apr-15 16:33N 35°17' E 139°41'0 0.0
2015-Apr-15 15:31N 35°17' E 139°41'0 0.0
2015-Apr-15 14:33N 35°17' E 139°41'0 0.0
2015-Apr-15 13:33N 35°17' E 139°41'0 0.0
2015-Apr-15 12:30N 35°17' E 139°41'0 0.0
2015-Apr-15 11:30N 35°17' E 139°41'0 0.0
2015-Apr-15 10:32N 35°17' E 139°41'0 0.0
2015-Apr-15 09:31N 35°17' E 139°41'0 0.0
2015-Apr-15 08:33N 35°17' E 139°41'0 0.0
2015-Apr-15 07:32N 35°17' E 139°41'0 0.0
2015-Apr-15 06:33N 35°17' E 139°41'0 0.1
2015-Apr-15 05:33N 35°17' E 139°41'0 0.0
2015-Apr-15 04:31N 35°17' E 139°41'6 6.1
2015-Apr-15 03:33N 35°14' E 139°46'1211.9
2015-Apr-15 02:33N 35°25' E 139°45'1110.7
2015-Apr-15 01:33N 35°29' E 139°57'1 0.6
2015-Apr-15 00:33N 35°29' E 139°57'2 1.6
2015-Apr-14 23:33N 35°28' E 139°56'9 9.4
2015-Apr-14 22:33N 35°23' E 139°46'8 8.4
2015-Apr-14 21:33N 35°14' E 139°47'2 1.6
2015-Apr-14 20:33N 35°13' E 139°46'6 5.8
2015-Apr-14 19:34N 35°17' E 139°41'0 0.0
2015-Apr-14 18:33N 35°17' E 139°41'0 0.0
2015-Apr-14 17:34N 35°17' E 139°41'0 0.0
2015-Apr-14 16:34N 35°17' E 139°41'0 0.0
2015-Apr-14 15:34N 35°17' E 139°41'0 0.0
2015-Apr-14 14:33N 35°17' E 139°41'0 0.0
2015-Apr-14 13:33N 35°17' E 139°41'0 0.0
2015-Apr-14 12:34N 35°17' E 139°41'0 0.0
2015-Apr-14 11:33N 35°17' E 139°41'0 0.0
2015-Apr-14 10:34N 35°17' E 139°41'0 0.0
2015-Apr-14 09:34N 35°17' E 139°41'0 0.0
2015-Apr-14 08:34N 35°17' E 139°41'0 0.0
2015-Apr-14 07:34N 35°17' E 139°41'0 0.0
2015-Apr-14 06:34N 35°17' E 139°41'0 0.0
2015-Apr-14 05:34N 35°17' E 139°41'0 0.3
2015-Apr-14 04:33N 35°17' E 139°41'2 2.5
2015-Apr-14 03:34N 35°19' E 139°42'7 6.6
2015-Apr-14 02:33N 35°14' E 139°47'1 1.1
2015-Apr-14 01:33N 35°14' E 139°46'5 5.3
2015-Apr-14 00:33N 35°17' E 139°41'0 0.0
2015-Apr-13 23:32N 35°17' E 139°41'0 0.0
2015-Apr-13 22:33N 35°17' E 139°41'0 0.0
2015-Apr-13 21:17N 35°17' E 139°41'0 0.0
2015-Apr-13 20:33N 35°17' E 139°41'0 0.0
2015-Apr-13 19:33N 35°17' E 139°41'0 0.0
2015-Apr-13 18:33N 35°17' E 139°41'0 0.0
2015-Apr-13 17:31N 35°17' E 139°41'0 0.0
2015-Apr-13 16:32N 35°17' E 139°41'0 0.0
2015-Apr-13 15:31N 35°17' E 139°41'0 0.0
2015-Apr-13 14:31N 35°17' E 139°41'0 0.0
2015-Apr-13 13:33N 35°17' E 139°41'0 0.0
2015-Apr-13 12:34N 35°17' E 139°41'0 0.0
2015-Apr-13 11:33N 35°17' E 139°41'0 0.0
2015-Apr-13 10:33N 35°17' E 139°41'0 0.0
2015-Apr-13 09:33N 35°17' E 139°41'0 0.0
2015-Apr-13 08:33N 35°17' E 139°41'0 0.0
2015-Apr-13 07:32N 35°17' E 139°41'0 0.0
2015-Apr-13 06:33N 35°17' E 139°41'0 0.0
2015-Apr-13 05:34N 35°17' E 139°41'0 0.0
2015-Apr-13 04:27N 35°17' E 139°41'0 0.0
2015-Apr-13 03:32N 35°17' E 139°41'0 0.0
2015-Apr-13 02:28N 35°17' E 139°41'0 0.0
2015-Apr-13 01:31N 35°17' E 139°41'0 0.0
2015-Apr-13 00:33N 35°17' E 139°41'0 0.0
2015-Apr-12 23:30N 35°17' E 139°41'0 0.0
2015-Apr-12 22:20N 35°17' E 139°41'0 0.0
2015-Apr-12 21:30N 35°17' E 139°41'7 7.7
2015-Apr-12 20:34N 35°23' E 139°45'8 7.4
2015-Apr-12 19:31N 35°16' E 139°46'4 4.3
2015-Apr-12 18:33N 35°12' E 139°45'3 2.5
2015-Apr-12 17:33N 35°13' E 139°43'0 0.0
2015-Apr-12 16:33N 35°13' E 139°43'0 0.0
2015-Apr-12 15:33N 35°13' E 139°43'0 0.0
2015-Apr-12 14:33N 35°13' E 139°43'3 2.7
2015-Apr-12 13:33N 35°12' E 139°46'1212.2
2015-Apr-12 12:34N 35°24' E 139°43'5 4.8
2015-Apr-12 11:33N 35°28' E 139°46'0 0.1
2015-Apr-12 10:33N 35°28' E 139°46'0 0.0
2015-Apr-12 09:33N 35°28' E 139°46'0 0.0
2015-Apr-12 08:33N 35°28' E 139°46'8 7.6
2015-Apr-12 07:33N 35°21' E 139°45'1211.7
2015-Apr-12 06:33N 35°09' E 139°46'5 3.8
2015-Apr-12 05:19N 35°13' E 139°43'1 0.4
2015-Apr-12 03:33N 35°13' E 139°44'7 7.5
2015-Apr-12 02:33N 35°20' E 139°42'7 7.1
2015-Apr-12 01:33N 35°27' E 139°43'8 7.8
2015-Apr-12 00:33N 35°20' E 139°42'3 2.8
2015-Apr-11 23:33N 35°17' E 139°41'0 0.0
2015-Apr-11 22:34N 35°17' E 139°41'0 0.0
2015-Apr-11 21:34N 35°17' E 139°41'0 0.0
2015-Apr-11 20:34N 35°17' E 139°41'0 0.0
2015-Apr-11 19:34N 35°17' E 139°41'0 0.0
2015-Apr-11 18:34N 35°17' E 139°41'0 0.0
2015-Apr-11 17:33N 35°17' E 139°41'0 0.0
2015-Apr-11 16:34N 35°17' E 139°41'0 0.0
2015-Apr-11 15:33N 35°17' E 139°41'0 0.0
2015-Apr-11 14:34N 35°17' E 139°41'0 0.0
2015-Apr-11 13:34N 35°17' E 139°41'0 0.0
2015-Apr-11 12:34N 35°17' E 139°41'0 0.0
2015-Apr-11 11:34N 35°17' E 139°41'  
Track history (hours):
 
Tides and Currents Weather Stations Pressure Air Temp Water Temp Dewpoint Dewpoint Depression Visibility Wind Speed Wind Dir Waves Ship Positions

Uraga Maru

Last reported at 2015-Apr-21 11:33 UTC. Time now 2015-Apr-21 11:39 UTC.
Position N 35°12' E 139°46'.

Length 40 m; draft 2.8 m.

Type: Tug. MMSI: 431101119.

Date/timePositionNaut miles runAvg speedWind from/ knotsBaromVisibWave heightAir tempDewpointWater temp
2015-Apr-21 11:33N 35°12' E 139°46'1110.7
2015-Apr-21 10:33N 35°22' E 139°42'4 4.4
2015-Apr-21 09:33N 35°27' E 139°42'0 0.1
2015-Apr-21 08:33N 35°27' E 139°42'0 0.0
2015-Apr-21 07:33N 35°27' E 139°42'4 3.6
2015-Apr-21 06:33N 35°27' E 139°47'4 3.9
2015-Apr-21 05:33N 35°28' E 139°51'1110.7
2015-Apr-21 04:33N 35°19' E 139°44'1010.2
2015-Apr-21 03:33N 35°09' E 139°47'5 5.2
2015-Apr-21 02:33N 35°13' E 139°43'4 4.2
2015-Apr-21 01:33N 35°17' E 139°45'5 5.3
2015-Apr-21 00:33N 35°22' E 139°41'5 4.6
2015-Apr-20 23:32N 35°17' E 139°41'0 0.0
2015-Apr-20 21:30N 35°17' E 139°41'0 0.0
2015-Apr-20 20:28N 35°17' E 139°41'0 0.0
2015-Apr-20 16:29N 35°17' E 139°41'0 0.0
2015-Apr-20 06:30N 35°17' E 139°41'0 0.0
2015-Apr-20 05:33N 35°17' E 139°41'0 0.0
2015-Apr-20 04:30N 35°17' E 139°41'0 0.0
2015-Apr-20 03:33N 35°17' E 139°41'3 3.2
2015-Apr-20 02:33N 35°20' E 139°42'2 2.2
2015-Apr-20 01:34N 35°19' E 139°44'8 8.1
2015-Apr-20 00:31N 35°10' E 139°47'4 3.3
2015-Apr-19 23:15N 35°13' E 139°43'4 5.4
2015-Apr-19 22:32N 35°17' E 139°45'1010.4
2015-Apr-19 21:34N 35°27' E 139°47'1010.4
2015-Apr-19 20:34N 35°33' E 139°57'9 8.9
2015-Apr-19 19:33N 35°27' E 139°49'1211.9
2015-Apr-19 18:33N 35°17' E 139°41'0 0.3
2015-Apr-19 17:33N 35°17' E 139°41'0 0.0
2015-Apr-19 16:33N 35°17' E 139°41'0 0.0
2015-Apr-19 15:33N 35°17' E 139°41'0 0.0
2015-Apr-19 14:33N 35°17' E 139°41'0 0.0
2015-Apr-19 13:33N 35°17' E 139°41'0 0.0
2015-Apr-19 12:33N 35°17' E 139°41'0 0.0
2015-Apr-19 11:33N 35°17' E 139°41'0 0.0
2015-Apr-19 10:33N 35°17' E 139°41'0 0.0
2015-Apr-19 09:33N 35°17' E 139°41'0 0.0
2015-Apr-19 08:33N 35°17' E 139°41'0 0.0
2015-Apr-19 07:33N 35°17' E 139°41'0 0.0
2015-Apr-19 06:33N 35°17' E 139°41'10 9.9
2015-Apr-19 05:33N 35°26' E 139°46'1010.1
2015-Apr-19 04:33N 35°16' E 139°46'5 5.2
2015-Apr-19 03:34N 35°11' E 139°47'2 2.0
2015-Apr-19 02:34N 35°12' E 139°45'7 7.4
2015-Apr-19 01:34N 35°19' E 139°43'5 5.4
2015-Apr-19 00:33N 35°22' E 139°48'0 0.5
2015-Apr-18 23:33N 35°22' E 139°49'6 5.7
2015-Apr-18 22:33N 35°18' E 139°45'8 7.5
2015-Apr-18 21:33N 35°11' E 139°47'8 8.3
2015-Apr-18 20:33N 35°17' E 139°41'0 0.2
2015-Apr-18 19:33N 35°17' E 139°41'0 0.0
2015-Apr-18 18:33N 35°17' E 139°41'0 0.0
2015-Apr-18 17:33N 35°17' E 139°41'0 0.0
2015-Apr-18 16:34N 35°17' E 139°41'0 0.0
2015-Apr-18 15:33N 35°17' E 139°41'0 0.0
2015-Apr-18 14:34N 35°17' E 139°41'0 0.0
2015-Apr-18 13:33N 35°17' E 139°41'0 0.0
2015-Apr-18 12:33N 35°17' E 139°41'0 0.0
2015-Apr-18 11:33N 35°17' E 139°41'0 0.0
2015-Apr-18 10:32N 35°17' E 139°41'0 0.0
2015-Apr-18 09:33N 35°17' E 139°41'0 0.0
2015-Apr-18 08:33N 35°17' E 139°41'0 0.0
2015-Apr-18 07:33N 35°17' E 139°41'0 0.0
2015-Apr-18 06:33N 35°17' E 139°41'0 0.0
2015-Apr-18 05:33N 35°17' E 139°41'0 0.0
2015-Apr-18 04:33N 35°17' E 139°41'0 0.0
2015-Apr-18 03:33N 35°17' E 139°41'0 0.0
2015-Apr-18 02:33N 35°17' E 139°41'1 0.9
2015-Apr-18 01:33N 35°18' E 139°41'4 4.0
2015-Apr-18 00:34N 35°21' E 139°45'1110.8
2015-Apr-17 23:33N 35°10' E 139°47'9 8.6
2015-Apr-17 22:33N 35°18' E 139°42'1 1.2
2015-Apr-17 21:33N 35°17' E 139°41'0 0.0
2015-Apr-17 20:33N 35°17' E 139°41'0 0.0
2015-Apr-17 19:33N 35°17' E 139°41'0 0.0
2015-Apr-17 18:33N 35°17' E 139°41'0 0.0
2015-Apr-17 17:33N 35°17' E 139°41'0 0.0
2015-Apr-17 16:32N 35°17' E 139°41'0 0.0
2015-Apr-17 15:32N 35°17' E 139°41'0 0.0
2015-Apr-17 14:33N 35°17' E 139°41'0 0.0
2015-Apr-17 13:33N 35°17' E 139°41'0 0.0
2015-Apr-17 12:33N 35°17' E 139°41'0 0.0
2015-Apr-17 11:32N 35°17' E 139°41'0 0.0
2015-Apr-17 10:30N 35°17' E 139°41'0 0.0
2015-Apr-17 09:33N 35°17' E 139°41'0 0.0
2015-Apr-17 08:33N 35°17' E 139°41'0 0.0
2015-Apr-17 07:33N 35°17' E 139°41'2 2.3
2015-Apr-17 06:33N 35°19' E 139°39'2 2.4
2015-Apr-17 05:33N 35°17' E 139°41'0 0.2
2015-Apr-17 04:32N 35°17' E 139°41'0 0.0
2015-Apr-17 03:33N 35°17' E 139°41'7 6.4
2015-Apr-17 02:31N 35°12' E 139°46'1110.9
2015-Apr-17 01:33N 35°22' E 139°42'5 5.3
2015-Apr-17 00:33N 35°21' E 139°49'3 2.7
2015-Apr-16 23:33N 35°21' E 139°45'5 5.5
2015-Apr-16 22:33N 35°17' E 139°41'0 0.0
2015-Apr-16 21:33N 35°17' E 139°41'0 0.0
2015-Apr-16 20:32N 35°17' E 139°41'0 0.0
2015-Apr-16 19:31N 35°17' E 139°41'0 0.0
2015-Apr-16 18:29N 35°17' E 139°41'0 0.0
2015-Apr-16 17:30N 35°17' E 139°41'0 0.0
2015-Apr-16 16:22N 35°17' E 139°41'0 0.0
2015-Apr-16 15:22N 35°17' E 139°41'0 0.0
2015-Apr-16 13:28N 35°17' E 139°41'0 0.0
2015-Apr-16 12:30N 35°17' E 139°41'0 0.0
2015-Apr-16 11:33N 35°17' E 139°41'0 0.0
2015-Apr-16 10:29N 35°17' E 139°41'0 0.0
2015-Apr-16 09:33N 35°17' E 139°41'0 0.0
2015-Apr-16 08:33N 35°17' E 139°41'0 0.0
2015-Apr-16 07:15N 35°17' E 139°41'2 2.5
2015-Apr-16 06:31N 35°19' E 139°42'1212.0
2015-Apr-16 05:33N 35°28' E 139°50'4 4.1
2015-Apr-16 04:30N 35°25' E 139°47'1111.3
2015-Apr-16 03:33N 35°14' E 139°47'1 0.9
2015-Apr-16 02:33N 35°14' E 139°46'5 2.6
2015-Apr-16 00:33N 35°17' E 139°41'5 4.6
2015-Apr-15 23:29N 35°21' E 139°45'1011.0
2015-Apr-15 22:33N 35°11' E 139°47'4 4.1
2015-Apr-15 21:32N 35°15' E 139°46'5 1.5
2015-Apr-15 18:25N 35°17' E 139°41'0 0.0
2015-Apr-15 17:33N 35°17' E 139°41'0 0.0
2015-Apr-15 16:33N 35°17' E 139°41'0 0.0
2015-Apr-15 15:31N 35°17' E 139°41'0 0.0
2015-Apr-15 14:33N 35°17' E 139°41'0 0.0
2015-Apr-15 13:33N 35°17' E 139°41'0 0.0
2015-Apr-15 12:30N 35°17' E 139°41'0 0.0
2015-Apr-15 11:30N 35°17' E 139°41'0 0.0
2015-Apr-15 10:32N 35°17' E 139°41'0 0.0
2015-Apr-15 09:31N 35°17' E 139°41'0 0.0
2015-Apr-15 08:33N 35°17' E 139°41'0 0.0
2015-Apr-15 07:32N 35°17' E 139°41'0 0.0
2015-Apr-15 06:33N 35°17' E 139°41'0 0.1
2015-Apr-15 05:33N 35°17' E 139°41'0 0.0
2015-Apr-15 04:31N 35°17' E 139°41'6 6.1
2015-Apr-15 03:33N 35°14' E 139°46'1211.9
2015-Apr-15 02:33N 35°25' E 139°45'1110.7
2015-Apr-15 01:33N 35°29' E 139°57'1 0.6
2015-Apr-15 00:33N 35°29' E 139°57'2 1.6
2015-Apr-14 23:33N 35°28' E 139°56'9 9.4
2015-Apr-14 22:33N 35°23' E 139°46'8 8.4
2015-Apr-14 21:33N 35°14' E 139°47'2 1.6
2015-Apr-14 20:33N 35°13' E 139°46'6 5.8
2015-Apr-14 19:34N 35°17' E 139°41'0 0.0
2015-Apr-14 18:33N 35°17' E 139°41'0 0.0
2015-Apr-14 17:34N 35°17' E 139°41'0 0.0
2015-Apr-14 16:34N 35°17' E 139°41'0 0.0
2015-Apr-14 15:34N 35°17' E 139°41'0 0.0
2015-Apr-14 14:33N 35°17' E 139°41'0 0.0
2015-Apr-14 13:33N 35°17' E 139°41'0 0.0
2015-Apr-14 12:34N 35°17' E 139°41'0 0.0
2015-Apr-14 11:33N 35°17' E 139°41'0 0.0
2015-Apr-14 10:34N 35°17' E 139°41'0 0.0
2015-Apr-14 09:34N 35°17' E 139°41'0 0.0
2015-Apr-14 08:34N 35°17' E 139°41'0 0.0
2015-Apr-14 07:34N 35°17' E 139°41'0 0.0
2015-Apr-14 06:34N 35°17' E 139°41'0 0.0
2015-Apr-14 05:34N 35°17' E 139°41'0 0.3
2015-Apr-14 04:33N 35°17' E 139°41'2 2.5
2015-Apr-14 03:34N 35°19' E 139°42'7 6.6
2015-Apr-14 02:33N 35°14' E 139°47'1 1.1
2015-Apr-14 01:33N 35°14' E 139°46'5 5.3
2015-Apr-14 00:33N 35°17' E 139°41'0 0.0
2015-Apr-13 23:32N 35°17' E 139°41'0 0.0
2015-Apr-13 22:33N 35°17' E 139°41'0 0.0
2015-Apr-13 21:17N 35°17' E 139°41'0 0.0
2015-Apr-13 20:33N 35°17' E 139°41'0 0.0
2015-Apr-13 19:33N 35°17' E 139°41'0 0.0
2015-Apr-13 18:33N 35°17' E 139°41'0 0.0
2015-Apr-13 17:31N 35°17' E 139°41'0 0.0
2015-Apr-13 16:32N 35°17' E 139°41'0 0.0
2015-Apr-13 15:31N 35°17' E 139°41'0 0.0
2015-Apr-13 14:31N 35°17' E 139°41'0 0.0
2015-Apr-13 13:33N 35°17' E 139°41'0 0.0
2015-Apr-13 12:34N 35°17' E 139°41'0 0.0
2015-Apr-13 11:33N 35°17' E 139°41'0 0.0
2015-Apr-13 10:33N 35°17' E 139°41'0 0.0
2015-Apr-13 09:33N 35°17' E 139°41'0 0.0
2015-Apr-13 08:33N 35°17' E 139°41'0 0.0
2015-Apr-13 07:32N 35°17' E 139°41'0 0.0
2015-Apr-13 06:33N 35°17' E 139°41'0 0.0
2015-Apr-13 05:34N 35°17' E 139°41'0 0.0
2015-Apr-13 04:27N 35°17' E 139°41'0 0.0
2015-Apr-13 03:32N 35°17' E 139°41'0 0.0
2015-Apr-13 02:28N 35°17' E 139°41'0 0.0
2015-Apr-13 01:31N 35°17' E 139°41'0 0.0
2015-Apr-13 00:33N 35°17' E 139°41'0 0.0
2015-Apr-12 23:30N 35°17' E 139°41'0 0.0
2015-Apr-12 22:20N 35°17' E 139°41'0 0.0
2015-Apr-12 21:30N 35°17' E 139°41'7 7.7
2015-Apr-12 20:34N 35°23' E 139°45'8 7.4
2015-Apr-12 19:31N 35°16' E 139°46'4 4.3
2015-Apr-12 18:33N 35°12' E 139°45'3 2.5
2015-Apr-12 17:33N 35°13' E 139°43'0 0.0
2015-Apr-12 16:33N 35°13' E 139°43'0 0.0
2015-Apr-12 15:33N 35°13' E 139°43'0 0.0
2015-Apr-12 14:33N 35°13' E 139°43'3 2.7
2015-Apr-12 13:33N 35°12' E 139°46'1212.2
2015-Apr-12 12:34N 35°24' E 139°43'5 4.8
2015-Apr-12 11:33N 35°28' E 139°46'0 0.1
2015-Apr-12 10:33N 35°28' E 139°46'0 0.0
2015-Apr-12 09:33N 35°28' E 139°46'0 0.0
2015-Apr-12 08:33N 35°28' E 139°46'8 7.6
2015-Apr-12 07:33N 35°21' E 139°45'1211.7
2015-Apr-12 06:33N 35°09' E 139°46'5 3.8
2015-Apr-12 05:19N 35°13' E 139°43'1 0.4
2015-Apr-12 03:33N 35°13' E 139°44'7 7.5
2015-Apr-12 02:33N 35°20' E 139°42'7 7.1
2015-Apr-12 01:33N 35°27' E 139°43'8 7.8
2015-Apr-12 00:33N 35°20' E 139°42'3 2.8
2015-Apr-11 23:33N 35°17' E 139°41'0 0.0
2015-Apr-11 22:34N 35°17' E 139°41'0 0.0
2015-Apr-11 21:34N 35°17' E 139°41'0 0.0
2015-Apr-11 20:34N 35°17' E 139°41'0 0.0
2015-Apr-11 19:34N 35°17' E 139°41'0 0.0
2015-Apr-11 18:34N 35°17' E 139°41'0 0.0
2015-Apr-11 17:33N 35°17' E 139°41'0 0.0
2015-Apr-11 16:34N 35°17' E 139°41'0 0.0
2015-Apr-11 15:33N 35°17' E 139°41'0 0.0
2015-Apr-11 14:34N 35°17' E 139°41'0 0.0
2015-Apr-11 13:34N 35°17' E 139°41'0 0.0
2015-Apr-11 12:34N 35°17' E 139°41'0 0.0
2015-Apr-11 11:34N 35°17' E 139°41'  

Dump ship's entire track history